Time;durP1;ratioP1;P1;durP2;ratioP2;P2;SDS_P1;SDS_P2;PMS_P1;PMS_P2;Temp;Humidity;BMP_temperature;BMP_pressure;BME280_temperature;BME280_humidity;BME280_pressure;Samples;Min_cycle;Max_cycle;Signal;HPM_P1;HPM_P2
2022/11/04 00:01:23;;;;;;;0.87;0.80;;;;;;;-145.69;100.00;52511.72;5132944;28;20200;-82
2022/11/04 00:03:51;;;;;;;2.50;1.10;;;;;;;-145.69;100.00;52497.84;5147941;27;20196;-82
2022/11/04 00:06:19;;;;;;;1.03;0.90;;;;;;;-145.69;100.00;52468.16;5154336;27;20204;-82
2022/11/04 00:08:49;;;;;;;2.50;1.07;;;;;;;-145.69;100.00;52485.97;5154236;27;20206;-82
2022/11/04 00:13:59;;;;;;;1.10;1.00;;;;;;;-145.69;100.00;52472.13;5155819;27;20198;-82
2022/11/04 00:19:10;;;;;;;1.00;0.80;;;;;;;-145.69;100.00;52476.06;5115794;28;20680;-82
2022/11/04 00:29:49;;;;;;;1.17;0.90;;;;;;;-145.69;100.00;52491.91;5116127;28;20192;-81
2022/11/04 00:35:00;;;;;;;0.80;0.80;;;;;;;-145.69;100.00;52491.91;5115975;28;20236;-81
2022/11/04 00:37:28;;;;;;;0.80;0.80;;;;;;;-145.69;100.00;52507.75;5134124;27;20193;-81
2022/11/04 00:39:54;;;;;;;0.90;0.80;;;;;;;-145.69;100.00;52511.72;5157296;27;20203;-82
2022/11/04 00:42:21;;;;;;;1.50;0.87;;;;;;;-145.69;100.00;52482.00;5157083;27;20563;-82
2022/11/04 00:44:47;;;;;;;1.17;0.70;;;;;;;-145.69;100.00;52495.88;5157302;27;20203;-82
2022/11/04 00:47:15;;;;;;;0.60;0.60;;;;;;;-145.69;100.00;52450.31;5140561;27;20547;-81
2022/11/04 00:49:41;;;;;;;0.80;0.70;;;;;;;-145.69;100.00;52480.03;5135793;27;20200;-81
2022/11/04 00:52:08;;;;;;;4.57;1.03;;;;;;;-145.69;100.00;52464.19;5136452;27;20200;-82
2022/11/04 00:54:35;;;;;;;0.80;0.70;;;;;;;-145.69;100.00;52487.97;5136293;27;20201;-81
2022/11/04 00:57:02;;;;;;;1.20;1.00;;;;;;;-145.69;100.00;52487.97;5136365;27;20200;-82
2022/11/04 00:59:28;;;;;;;0.90;0.90;;;;;;;-145.69;100.00;52476.06;5155702;27;20192;-81
2022/11/04 01:01:55;;;;;;;2.57;0.97;;;;;;;-145.69;100.00;52493.91;5156768;27;20224;-81
2022/11/04 01:04:22;;;;;;;1.30;1.10;;;;;;;-145.69;100.00;52513.69;5157260;27;20215;-81
2022/11/04 01:06:48;;;;;;;1.40;0.97;;;;;;;-145.69;100.00;52480.03;5156799;27;20643;-82
2022/11/04 01:09:15;;;;;;;2.07;1.10;;;;;;;-145.69;100.00;52487.97;5156046;27;20203;-82
2022/11/04 01:11:43;;;;;;;1.80;1.00;;;;;;;-145.69;100.00;52472.13;5136121;27;20559;-82
2022/11/04 01:14:09;;;;;;;1.67;1.10;;;;;;;-145.69;100.00;52485.97;5135817;27;20197;-82
2022/11/04 01:16:36;;;;;;;2.60;1.20;;;;;;;-145.69;100.00;52507.75;5135866;27;20197;-81
2022/11/04 01:19:03;;;;;;;1.53;1.20;;;;;;;-145.69;100.00;52434.47;5135151;27;20563;-82
2022/11/04 01:21:30;;;;;;;1.20;0.90;;;;;;;-145.69;100.00;52487.97;5153223;27;20362;-83
2022/11/04 01:23:56;;;;;;;3.03;1.00;;;;;;;-145.69;100.00;52476.06;5156502;27;20235;-82
2022/11/04 01:26:25;;;;;;;0.90;0.90;;;;;;;-145.69;100.00;52458.25;5138656;27;20201;-82
2022/11/04 01:28:55;;;;;;;1.23;1.00;;;;;;;-145.69;100.00;52464.19;5135775;27;20291;-81
2022/11/04 01:31:23;;;;;;;1.03;0.70;;;;;;;-145.69;100.00;52456.28;5150083;27;20200;-82
2022/11/04 01:33:51;;;;;;;0.93;0.73;;;;;;;-145.69;100.00;52452.31;5148965;27;20233;-82
2022/11/04 01:36:18;;;;;;;0.97;0.80;;;;;;;-145.69;100.00;52511.72;5135296;27;20193;-82
2022/11/04 01:38:44;;;;;;;1.57;0.97;;;;;;;-145.69;100.00;52458.25;5135592;27;20258;-82
2022/11/04 01:41:17;;;;;;;2.33;0.70;;;;;;;-145.69;100.00;52499.84;5135563;27;20204;-82
2022/11/04 01:43:48;;;;;;;1.27;0.80;;;;;;;-145.69;100.00;52452.31;5127473;27;20239;-82
2022/11/04 01:46:24;;;;;;;1.50;0.90;;;;;;;-145.69;100.00;52460.22;5135440;27;20196;-82
2022/11/04 01:48:52;;;;;;;0.77;0.63;;;;;;;-145.69;100.00;52456.28;5135376;27;20192;-81
2022/11/04 01:51:20;;;;;;;1.17;0.80;;;;;;;-145.69;100.00;52495.88;5141666;27;20200;-81
2022/11/04 01:53:48;;;;;;;2.37;1.00;;;;;;;-145.69;100.00;52450.31;5155531;27;20207;-82
2022/11/04 01:56:16;;;;;;;0.70;0.70;;;;;;;-145.69;100.00;52464.19;5155535;27;20650;-81
2022/11/04 01:58:48;;;;;;;1.67;0.80;;;;;;;-145.69;100.00;52484.00;5156141;27;20585;-82
2022/11/04 02:01:16;;;;;;;1.27;0.70;;;;;;;-145.69;100.00;52472.13;5149612;27;20196;-82
2022/11/04 02:03:48;;;;;;;0.97;0.70;;;;;;;-145.69;100.00;52491.91;5135013;27;20227;-82
2022/11/04 02:06:16;;;;;;;1.17;0.67;;;;;;;-145.69;100.00;52485.97;5134878;27;20200;-82
2022/11/04 02:08:43;;;;;;;0.70;0.70;;;;;;;-145.69;100.00;52491.91;5134705;27;20205;-82
2022/11/04 02:11:10;;;;;;;1.43;0.60;;;;;;;-145.69;100.00;52507.75;5134666;27;20605;-82
2022/11/04 02:13:36;;;;;;;0.93;0.60;;;;;;;-145.69;100.00;52495.88;5143527;27;20192;-82
2022/11/04 02:16:12;;;;;;;0.80;0.80;;;;;;;-145.69;100.00;52464.19;5140121;27;20716;-82
2022/11/04 02:18:54;;;;;;;1.50;0.50;;;;;;;-145.69;100.00;52474.09;5134722;27;20204;-82
2022/11/04 02:21:46;;;;;;;0.50;0.50;;;;;;;-145.69;100.00;52476.06;5134490;27;20204;-81
2022/11/04 02:24:47;;;;;;;0.70;0.70;;;;;;;-145.69;100.00;52503.81;5134635;27;20235;-82
2022/11/04 02:27:30;;;;;;;0.97;0.90;;;;;;;-145.69;100.00;52474.09;5125252;27;20279;-81
2022/11/04 02:30:16;;;;;;;0.93;0.93;;;;;;;-145.69;100.00;52493.91;5134792;27;20197;-82
2022/11/04 02:32:59;;;;;;;1.37;1.00;;;;;;;-145.69;100.00;52456.28;5121748;27;20667;-82
2022/11/04 02:35:33;;;;;;;0.70;0.60;;;;;;;-145.69;100.00;52527.56;5134036;27;20220;-83
2022/11/04 02:38:10;;;;;;;0.70;0.70;;;;;;;-145.69;100.00;52493.91;5145417;27;20195;-82
2022/11/04 02:40:42;;;;;;;2.37;0.70;;;;;;;-145.69;100.00;52507.75;5155191;27;20202;-84
2022/11/04 02:43:15;;;;;;;0.97;0.87;;;;;;;-145.69;100.00;52468.16;5154784;27;20720;-83
2022/11/04 02:45:46;;;;;;;1.53;0.67;;;;;;;-145.69;100.00;52517.66;5154921;27;20203;-83
2022/11/04 02:48:20;;;;;;;1.17;0.80;;;;;;;-145.69;100.00;52491.91;5154945;27;20286;-83
2022/11/04 02:50:52;;;;;;;1.83;0.77;;;;;;;-145.69;100.00;52478.06;5134984;27;20206;-83
2022/11/04 02:53:23;;;;;;;3.73;0.90;;;;;;;-145.69;100.00;52515.69;5134436;27;20559;-82
2022/11/04 02:55:54;;;;;;;1.07;0.90;;;;;;;-145.69;100.00;52507.75;5133953;27;20208;-83
2022/11/04 02:58:24;;;;;;;1.40;0.97;;;;;;;-145.69;100.00;52509.75;5134128;27;20212;-83
2022/11/04 03:00:54;;;;;;;3.47;0.87;;;;;;;-145.69;100.00;52495.88;5135208;27;20193;-82
2022/11/04 03:03:25;;;;;;;1.80;0.67;;;;;;;-145.69;100.00;52507.75;5154313;27;20230;-83
2022/11/04 03:05:55;;;;;;;3.07;0.90;;;;;;;-145.69;100.00;52551.31;5154710;27;20689;-83
2022/11/04 03:08:26;;;;;;;0.93;0.60;;;;;;;-145.69;100.00;52519.63;5154896;27;20200;-83
2022/11/04 03:10:58;;;;;;;0.73;0.73;;;;;;;-145.69;100.00;52515.69;5153990;27;20192;-81
2022/11/04 03:13:31;;;;;;;0.97;0.80;;;;;;;-145.69;100.00;52515.69;5151004;27;20662;-83
2022/11/04 03:16:03;;;;;;;0.73;0.73;;;;;;;-145.69;100.00;52517.66;5134213;28;20208;-83
2022/11/04 03:18:36;;;;;;;0.90;0.70;;;;;;;-145.69;100.00;52511.72;5134003;27;20203;-83
2022/11/04 03:21:05;;;;;;;0.50;0.50;;;;;;;-145.69;100.00;52525.59;5133836;27;20196;-83
2022/11/04 03:23:32;;;;;;;1.00;0.70;;;;;;;-145.69;100.00;52495.88;5133559;27;20220;-82
2022/11/04 03:26:08;;;;;;;2.40;1.07;;;;;;;-145.69;100.00;52505.78;5138493;27;20199;-83
2022/11/04 03:28:44;;;;;;;1.13;0.80;;;;;;;-145.69;100.00;52484.00;5153878;27;20195;-83
2022/11/04 03:31:21;;;;;;;1.27;0.80;;;;;;;-145.69;100.00;52507.75;5154540;27;20207;-82
2022/11/04 03:33:50;;;;;;;2.00;0.80;;;;;;;-145.69;100.00;52503.81;5154336;27;20230;-81
2022/11/04 03:36:18;;;;;;;1.63;0.93;;;;;;;-145.69;100.00;52545.38;5154317;27;20203;-83
2022/11/04 03:38:45;;;;;;;1.17;0.80;;;;;;;-145.69;100.00;52480.03;5141962;27;20204;-82
2022/11/04 03:41:16;;;;;;;0.83;0.80;;;;;;;-145.69;100.00;52501.81;5133860;27;20614;-83
2022/11/04 03:43:43;;;;;;;2.50;1.17;;;;;;;-145.69;100.00;52539.44;5133745;28;20229;-83
2022/11/04 03:46:10;;;;;;;1.63;1.07;;;;;;;-145.69;100.00;52503.81;5133528;27;20201;-83
2022/11/04 03:48:38;;;;;;;5.17;1.10;;;;;;;-145.69;100.00;52487.97;5134970;27;20220;-83
2022/11/04 03:51:05;;;;;;;1.67;0.97;;;;;;;-145.69;100.00;52509.75;5153391;27;20196;-83
2022/11/04 03:53:32;;;;;;;1.83;1.00;;;;;;;-145.69;100.00;52515.69;5158828;27;20558;-83
2022/11/04 03:56:28;;;;;;;1.10;0.73;;;;;;;-145.69;100.00;52523.59;5158415;27;20203;-83
2022/11/04 03:59:11;;;;;;;1.83;1.00;;;;;;;-145.69;100.00;52497.84;5128566;27;20203;-83
2022/11/04 04:01:48;;;;;;;1.63;0.90;;;;;;;-145.69;100.00;52535.47;5157326;27;20192;-83
2022/11/04 04:04:22;;;;;;;2.20;0.90;;;;;;;-145.69;100.00;52507.75;5137592;27;20239;-83
2022/11/04 04:06:52;;;;;;;1.10;1.00;;;;;;;-145.69;100.00;52489.94;5137279;27;20483;-83
2022/11/04 04:09:24;;;;;;;2.83;0.83;;;;;;;-145.69;100.00;52517.66;5137659;27;20208;-83
2022/11/04 04:11:57;;;;;;;1.70;1.10;;;;;;;-145.69;100.00;52547.38;5138324;27;20200;-82
2022/11/04 04:14:39;;;;;;;2.97;1.30;;;;;;;-145.69;100.00;52478.06;5157820;27;20203;-83
2022/11/04 04:17:12;;;;;;;2.10;1.13;;;;;;;-145.69;100.00;52521.63;5157907;27;20196;-83
2022/11/04 04:19:44;;;;;;;1.70;1.20;;;;;;;-145.69;100.00;52462.22;5157912;27;20196;-82
2022/11/04 04:22:14;;;;;;;3.00;1.10;;;;;;;-145.69;100.00;52521.63;5157591;27;20680;-83
2022/11/04 04:27:32;;;;;;;2.57;1.50;;;;;;;-145.69;100.00;52571.13;5135458;27;20203;-83
2022/11/04 04:30:02;;;;;;;3.30;1.80;;;;;;;-145.69;100.00;52515.69;5137063;27;20197;-83
2022/11/04 04:32:32;;;;;;;5.13;1.73;;;;;;;-145.69;100.00;52525.59;5136209;27;20193;-83
2022/11/04 04:37:42;;;;;;;4.90;2.10;;;;;;;-145.69;100.00;52525.59;5153600;27;20210;-83
2022/11/04 04:45:42;;;;;;;2.40;1.50;;;;;;;-145.69;100.00;52509.75;5157245;27;20199;-83
2022/11/04 04:48:11;;;;;;;2.33;1.30;;;;;;;-145.69;100.00;52549.34;5153010;27;20193;-83
2022/11/04 04:50:44;;;;;;;2.10;1.20;;;;;;;-145.69;100.00;52547.38;5136053;27;20212;-83
2022/11/04 04:53:11;;;;;;;1.47;0.97;;;;;;;-145.69;100.00;52543.41;5136443;27;20196;-82
2022/11/04 04:55:37;;;;;;;1.77;1.10;;;;;;;-145.69;100.00;52543.41;5136642;27;20200;-83
2022/11/04 04:58:04;;;;;;;1.87;1.00;;;;;;;-145.69;100.00;52531.53;5136182;27;20197;-83
2022/11/04 05:00:31;;;;;;;2.27;1.03;;;;;;;-145.69;100.00;52539.44;5141251;27;20196;-83
2022/11/04 05:02:58;;;;;;;2.47;1.00;;;;;;;-145.69;100.00;52515.69;5157038;27;20231;-83
2022/11/04 05:05:24;;;;;;;5.57;1.73;;;;;;;-145.69;100.00;52531.53;5157050;27;20203;-82
2022/11/04 05:07:52;;;;;;;2.77;1.43;;;;;;;-145.69;100.00;52515.69;5156761;27;20204;-82
2022/11/04 05:10:19;;;;;;;2.50;1.50;;;;;;;-145.69;100.00;52547.38;5156902;27;20207;-83
2022/11/04 05:15:30;;;;;;;3.10;1.23;;;;;;;-145.69;100.00;52543.41;5135806;27;20279;-83
2022/11/04 05:17:58;;;;;;;1.60;1.10;;;;;;;-145.69;100.00;52531.53;5135713;27;20197;-83
2022/11/04 05:20:25;;;;;;;7.27;1.20;;;;;;;-145.69;100.00;52515.69;5136238;27;20197;-82
2022/11/04 05:22:54;;;;;;;6.33;1.70;;;;;;;-145.69;100.00;52527.56;5146351;27;20203;-83
2022/11/04 05:25:20;;;;;;;3.00;1.17;;;;;;;-145.69;100.00;52531.53;5157092;27;20583;-83
2022/11/04 05:27:47;;;;;;;1.50;0.90;;;;;;;-145.69;100.00;52555.28;5156395;27;20213;-83
2022/11/04 05:30:13;;;;;;;4.20;1.60;;;;;;;-145.69;100.00;52565.19;5156519;27;20196;-83
2022/11/04 05:32:40;;;;;;;7.17;1.17;;;;;;;-145.69;100.00;52561.22;5156330;27;20203;-83
2022/11/04 05:35:07;;;;;;;3.43;1.40;;;;;;;-145.69;100.00;52547.38;5142932;27;20814;-83
2022/11/04 05:37:34;;;;;;;3.60;1.30;;;;;;;-145.69;100.00;52535.47;5135640;27;20291;-83
2022/11/04 05:40:01;;;;;;;4.43;1.43;;;;;;;-145.69;100.00;52541.44;5135810;27;20201;-83
2022/11/04 05:42:29;;;;;;;5.20;1.50;;;;;;;-145.69;100.00;52543.41;5135359;27;20535;-82
2022/11/04 05:44:55;;;;;;;7.40;1.60;;;;;;;-145.69;100.00;52527.56;5135382;27;20770;-83
2022/11/04 05:47:22;;;;;;;4.87;1.10;;;;;;;-145.69;100.00;52551.31;5148589;27;20199;-82
2022/11/04 05:49:49;;;;;;;2.47;1.17;;;;;;;-145.69;100.00;52529.53;5156133;27;20200;-83
2022/11/04 05:52:15;;;;;;;2.87;1.57;;;;;;;-145.69;100.00;52537.47;5156303;27;20200;-83
2022/11/04 05:54:42;;;;;;;2.50;1.33;;;;;;;-145.69;100.00;52555.28;5155672;27;20211;-82
2022/11/04 05:57:10;;;;;;;5.07;1.13;;;;;;;-145.69;100.00;52563.22;5155995;27;20199;-83
2022/11/04 05:59:37;;;;;;;3.23;1.23;;;;;;;-145.69;100.00;52551.31;5142163;27;20208;-83
2022/11/04 06:02:03;;;;;;;5.67;1.23;;;;;;;-145.69;100.00;52575.09;5135164;27;20199;-82
2022/11/04 06:04:30;;;;;;;3.13;1.50;;;;;;;-145.69;100.00;52531.53;5135200;27;20631;-83
2022/11/04 06:06:56;;;;;;;3.83;1.70;;;;;;;-145.69;100.00;52559.25;5135164;27;20197;-83
2022/11/04 06:09:37;;;;;;;3.63;1.50;;;;;;;-145.69;100.00;52531.53;5135091;27;20208;-83
2022/11/04 06:12:05;;;;;;;3.10;1.60;;;;;;;-145.69;100.00;52535.47;5150927;27;20274;-83
2022/11/04 06:14:33;;;;;;;4.53;1.43;;;;;;;-145.69;100.00;52519.63;5155262;27;20196;-83
2022/11/04 06:16:59;;;;;;;3.93;1.53;;;;;;;-145.69;100.00;52523.59;5155797;27;20196;-83
2022/11/04 06:19:26;;;;;;;4.57;1.50;;;;;;;-145.69;100.00;52571.13;5155248;27;20662;-83
2022/11/04 06:21:53;;;;;;;9.97;1.90;;;;;;;-145.69;100.00;52545.38;5141353;27;20678;-83
2022/11/04 06:24:20;;;;;;;5.43;1.23;;;;;;;-145.69;100.00;52549.34;5131001;27;20224;-83
2022/11/04 06:26:46;;;;;;;6.93;1.33;;;;;;;-145.69;100.00;52561.22;5134803;27;20216;-82
2022/11/04 06:29:12;;;;;;;5.93;1.60;;;;;;;-145.69;100.00;52535.47;5134445;27;20208;-83
2022/11/04 06:31:40;;;;;;;2.80;1.40;;;;;;;-145.69;100.00;52555.28;5145011;27;20192;-82
2022/11/04 06:34:07;;;;;;;4.87;1.33;;;;;;;-145.69;100.00;52543.41;5155102;27;20248;-82
2022/11/04 06:36:33;;;;;;;3.47;1.40;;;;;;;-145.69;100.00;52541.44;5155153;27;20200;-82
2022/11/04 06:39:00;;;;;;;3.37;1.60;;;;;;;-145.69;100.00;52527.56;5155030;27;20219;-83
2022/11/04 06:41:26;;;;;;;2.07;1.27;;;;;;;-145.69;100.00;52531.53;5155228;27;20203;-82
2022/11/04 06:43:53;;;;;;;2.53;1.13;;;;;;;-145.69;100.00;52535.47;5140632;27;20220;-82
2022/11/04 06:46:28;;;;;;;3.80;1.60;;;;;;;-145.69;100.00;52586.97;5134586;27;20200;-83
2022/11/04 06:48:57;;;;;;;4.70;1.50;;;;;;;-145.69;100.00;52523.59;5134072;27;20203;-83
2022/11/04 06:51:23;;;;;;;7.80;1.50;;;;;;;-145.69;100.00;52521.63;5133995;27;20196;-82
2022/11/04 06:53:50;;;;;;;4.23;1.50;;;;;;;-145.69;100.00;52547.38;5146447;27;20199;-82
2022/11/04 06:56:17;;;;;;;3.57;1.43;;;;;;;-145.69;100.00;52531.53;5154583;27;20200;-82
2022/11/04 06:58:43;;;;;;;5.13;1.63;;;;;;;-145.69;100.00;52586.97;5155070;27;20201;-82
2022/11/04 07:01:10;;;;;;;5.18;1.63;;;;;;;-145.69;100.00;52527.56;5154442;27;20424;-82
2022/11/04 07:03:36;;;;;;;4.13;2.00;;;;;;;-145.69;100.00;52561.22;5154503;27;20228;-82
2022/11/04 07:06:08;;;;;;;9.13;1.83;;;;;;;-145.69;100.00;52547.38;5142377;27;20680;-82
2022/11/04 07:08:35;;;;;;;4.67;1.50;;;;;;;-145.69;100.00;52551.31;5133778;27;20203;-82
2022/11/04 07:11:02;;;;;;;8.70;1.90;;;;;;;-145.69;100.00;52517.66;5134063;27;20197;-82
2022/11/04 07:13:29;;;;;;;5.03;1.90;;;;;;;-145.69;100.00;52579.06;5133533;27;20201;-82
2022/11/04 07:15:55;;;;;;;2.73;1.50;;;;;;;-145.69;100.00;52579.06;5133860;27;20196;-82
2022/11/04 07:18:21;;;;;;;4.70;1.40;;;;;;;-145.69;100.00;52547.38;5148030;27;20199;-83
2022/11/04 07:20:48;;;;;;;5.70;1.80;;;;;;;-145.69;100.00;52535.47;5154632;27;20196;-82
2022/11/04 07:23:16;;;;;;;6.43;1.70;;;;;;;-145.69;100.00;52525.59;5155704;27;20200;-82
2022/11/04 07:25:42;;;;;;;3.80;1.37;;;;;;;-145.69;100.00;52525.59;5158804;27;20200;-82
2022/11/04 07:28:09;;;;;;;3.40;1.70;;;;;;;-145.69;100.00;52539.44;5159105;27;20260;-82
2022/11/04 07:30:36;;;;;;;4.87;1.40;;;;;;;-145.69;100.00;52559.25;5142901;27;20197;-82
2022/11/04 07:33:02;;;;;;;3.60;1.60;;;;;;;-145.69;100.00;52535.47;5137799;27;20197;-83
2022/11/04 07:35:29;;;;;;;2.27;1.43;;;;;;;-145.69;100.00;52545.38;5138033;27;20208;-82
2022/11/04 07:37:55;;;;;;;5.53;1.90;;;;;;;-145.69;100.00;52551.31;5137813;27;20193;-83
2022/11/04 07:40:23;;;;;;;6.33;1.50;;;;;;;-145.69;100.00;52482.00;5137825;27;20200;-82
2022/11/04 07:42:49;;;;;;;8.03;1.63;;;;;;;-145.69;100.00;52539.44;5154492;27;20195;-82
2022/11/04 07:45:16;;;;;;;5.83;1.43;;;;;;;-145.69;100.00;52521.63;5158463;27;20235;-83
2022/11/04 07:47:43;;;;;;;3.80;1.40;;;;;;;-145.69;100.00;52547.38;5158626;27;20226;-83
2022/11/04 07:50:10;;;;;;;7.43;1.20;;;;;;;-145.69;100.00;52505.78;5157799;27;20204;-82
2022/11/04 07:52:36;;;;;;;5.13;1.43;;;;;;;-145.69;100.00;52551.31;5157982;27;20207;-83
2022/11/04 07:55:03;;;;;;;4.93;1.50;;;;;;;-145.69;100.00;52547.38;5137922;27;20192;-82
2022/11/04 07:57:30;;;;;;;4.73;1.53;;;;;;;-145.69;100.00;52523.59;5137540;27;20193;-83
2022/11/04 07:59:57;;;;;;;7.17;2.27;;;;;;;-145.69;100.00;52515.69;5137450;27;20208;-83
2022/11/04 08:02:23;;;;;;;3.93;1.67;;;;;;;-145.69;100.00;52545.38;5137559;27;20193;-83
2022/11/04 08:04:50;;;;;;;3.33;1.73;;;;;;;-145.69;100.00;52541.44;5143491;27;20223;-82
2022/11/04 08:07:20;;;;;;;5.70;1.50;;;;;;;-145.69;100.00;52517.66;5137258;27;20200;-84
2022/11/04 08:09:49;;;;;;;3.53;1.60;;;;;;;-145.69;100.00;52525.59;5137474;27;20224;-83
2022/11/04 08:12:16;;;;;;;5.47;1.60;;;;;;;-145.69;100.00;52527.56;5137329;27;20196;-83
2022/11/04 08:14:43;;;;;;;5.20;1.70;;;;;;;-145.69;100.00;52507.75;5141481;27;20219;-83
2022/11/04 08:17:10;;;;;;;5.60;1.67;;;;;;;-145.69;100.00;52499.84;5157607;27;20200;-83
2022/11/04 08:19:36;;;;;;;2.87;1.67;;;;;;;-145.69;100.00;52499.84;5157480;27;20203;-83
2022/11/04 08:22:03;;;;;;;4.90;1.50;;;;;;;-145.69;100.00;52527.56;5158009;27;20203;-83
2022/11/04 08:24:29;;;;;;;2.13;1.17;;;;;;;-145.69;100.00;52497.84;5157430;27;20698;-83
2022/11/04 08:26:56;;;;;;;4.87;1.50;;;;;;;-145.69;100.00;52517.66;5156484;27;20762;-83
2022/11/04 08:29:22;;;;;;;4.40;1.50;;;;;;;-145.69;100.00;52525.59;5157214;27;20240;-83
2022/11/04 08:31:50;;;;;;;10.20;1.63;;;;;;;-145.69;100.00;52509.75;5157736;27;20200;-82
2022/11/04 08:34:17;;;;;;;3.97;1.37;;;;;;;-145.69;100.00;52533.50;5130692;27;20240;-83
2022/11/04 08:36:45;;;;;;;3.17;1.23;;;;;;;-145.69;100.00;52509.75;5116127;28;20254;-83
2022/11/04 08:39:12;;;;;;;5.37;1.80;;;;;;;-145.69;100.00;52511.72;5134917;27;20196;-83
2022/11/04 08:41:41;;;;;;;4.70;1.00;;;;;;;-145.69;100.00;52511.72;5157618;27;20590;-83
2022/11/04 08:44:09;;;;;;;5.93;1.50;;;;;;;-145.69;100.00;52491.91;5157006;27;20227;-83
2022/11/04 08:46:38;;;;;;;6.43;1.30;;;;;;;-145.69;100.00;52484.00;5156887;27;20195;-83
2022/11/04 08:49:06;;;;;;;7.83;1.50;;;;;;;-145.69;100.00;52497.84;5157630;27;20196;-82
2022/11/04 08:51:34;;;;;;;2.87;1.00;;;;;;;-145.69;100.00;52503.81;5144673;27;20204;-82
2022/11/04 08:54:01;;;;;;;8.43;1.83;;;;;;;-145.69;100.00;52511.72;5136937;27;20204;-83
2022/11/04 08:56:29;;;;;;;6.93;1.20;;;;;;;-145.69;100.00;52505.78;5136970;27;20227;-82
2022/11/04 08:58:58;;;;;;;4.80;1.20;;;;;;;-145.69;100.00;52487.97;5136221;27;20612;-82
2022/11/04 09:01:25;;;;;;;6.17;1.23;;;;;;;-145.69;100.00;52485.97;5136389;27;20196;-83
2022/11/04 09:03:53;;;;;;;6.03;1.07;;;;;;;-145.69;100.00;52521.63;5153283;27;20196;-82
2022/11/04 09:06:23;;;;;;;3.33;1.47;;;;;;;-145.69;100.00;52523.59;5158426;27;20203;-82
2022/11/04 09:08:51;;;;;;;4.50;1.10;;;;;;;-145.69;100.00;52474.09;5158375;27;20196;-83
2022/11/04 09:11:18;;;;;;;4.53;1.30;;;;;;;-145.69;100.00;52472.13;5159474;27;20272;-82
2022/11/04 09:13:44;;;;;;;3.07;1.30;;;;;;;-145.69;100.00;52466.16;5157398;27;20196;-83
2022/11/04 09:16:13;;;;;;;4.90;1.20;;;;;;;-145.69;100.00;52523.59;5142038;27;20193;-83
2022/11/04 09:18:40;;;;;;;1.70;0.80;;;;;;;-145.69;100.00;52535.47;5138938;27;20647;-82
2022/11/04 09:21:08;;;;;;;1.60;1.13;;;;;;;-145.69;100.00;52470.13;5138710;27;20203;-83
2022/11/04 09:23:36;;;;;;;7.60;1.20;;;;;;;-145.69;100.00;52523.59;5137349;27;20661;-83
2022/11/04 09:26:09;;;;;;;2.20;1.03;;;;;;;-145.69;100.00;52468.16;5137035;27;20228;-84
2022/11/04 09:28:35;;;;;;;7.17;1.57;;;;;;;-145.69;100.00;52515.69;5137138;27;20200;-83
2022/11/04 09:31:06;;;;;;;4.10;1.30;;;;;;;-145.69;100.00;52485.97;5138268;27;20288;-84
2022/11/04 09:33:33;;;;;;;3.00;1.10;;;;;;;-145.69;100.00;52515.69;5145716;27;20228;-83
2022/11/04 09:35:59;;;;;;;5.43;1.13;;;;;;;-145.69;100.00;52434.47;5163863;27;20436;-83
2022/11/04 09:38:26;;;;;;;6.80;1.10;;;;;;;-145.69;100.00;52485.97;5162390;27;20200;-82
2022/11/04 09:40:54;;;;;;;3.20;0.90;;;;;;;-145.69;100.00;52458.25;5160236;27;20474;-82
2022/11/04 09:43:32;;;;;;;4.83;0.90;;;;;;;-145.69;100.00;52448.34;5158777;27;20196;-83
2022/11/04 09:46:01;;;;;;;5.37;1.13;;;;;;;-145.69;100.00;52499.84;5148556;27;20216;-82
2022/11/04 09:48:33;;;;;;;9.57;1.27;;;;;;;-145.69;100.00;52505.78;5135672;27;20200;-82
2022/11/04 09:51:04;;;;;;;7.23;1.00;;;;;;;-145.69;100.00;52476.06;5136858;27;20212;-82
2022/11/04 09:53:39;;;;;;;4.97;1.50;;;;;;;-145.69;100.00;52464.19;5138037;27;20201;-83
2022/11/04 09:56:15;;;;;;;4.97;1.37;;;;;;;-145.69;100.00;52484.00;5136932;27;20658;-83
2022/11/04 09:58:41;;;;;;;2.40;0.97;;;;;;;-145.69;100.00;52474.09;5140259;27;20192;-83
2022/11/04 10:01:20;;;;;;;3.20;1.00;;;;;;;-145.69;100.00;52493.91;5140045;27;20208;-83
2022/11/04 10:04:00;;;;;;;8.03;1.40;;;;;;;-145.69;100.00;52487.97;5138889;27;20253;-82
2022/11/04 10:06:36;;;;;;;6.77;1.20;;;;;;;-145.69;100.00;52478.06;5139211;27;20251;-83
2022/11/04 10:09:20;;;;;;;4.03;1.30;;;;;;;-145.69;100.00;52482.00;5142645;27;20408;-83
2022/11/04 10:12:02;;;;;;;5.90;1.33;;;;;;;-145.69;100.00;52491.91;5140942;27;20216;-82
2022/11/04 10:14:50;;;;;;;5.57;1.27;;;;;;;-145.69;100.00;52442.41;5142858;27;20220;-83
2022/11/04 10:17:35;;;;;;;7.83;1.10;;;;;;;-145.69;100.00;52464.19;5145917;27;20196;-83
2022/11/04 10:20:18;;;;;;;3.47;1.20;;;;;;;-145.69;100.00;52452.31;5143408;27;20192;-83
2022/11/04 10:22:57;;;;;;;2.97;0.80;;;;;;;-145.69;100.00;52474.09;5150481;27;20528;-83
2022/11/04 10:25:28;;;;;;;6.82;0.80;;;;;;;-145.69;100.00;52472.13;5145251;27;20220;-83
2022/11/04 10:27:58;;;;;;;6.13;0.93;;;;;;;-145.69;100.00;52450.31;5148611;27;20647;-83
2022/11/04 10:30:25;;;;;;;5.53;1.00;;;;;;;-145.69;100.00;52454.28;5141090;27;20201;-83
2022/11/04 10:32:59;;;;;;;2.73;0.93;;;;;;;-145.69;100.00;52476.06;5138243;27;20200;-84
2022/11/04 10:35:32;;;;;;;7.65;1.40;;;;;;;-145.69;100.00;52418.63;5115696;28;20194;-83
2022/11/04 10:38:17;;;;;;;5.80;1.35;;;;;;;-145.69;100.00;52460.22;5116919;28;20632;-82
2022/11/04 10:40:47;;;;;;;5.95;1.48;;;;;;;-145.69;97.55;52434.47;5097270;28;20194;-82
2022/11/04 10:43:18;;;;;;;6.05;1.10;;;;;;;-145.69;96.98;52456.28;5106129;28;20202;-81
2022/11/04 10:45:59;;;;;;;4.13;1.03;;;;;;;-145.69;100.00;52468.16;5102497;28;20225;-83
2022/11/04 10:48:32;;;;;;;5.00;0.73;;;;;;;-145.69;100.00;52448.34;5107847;28;20208;-82
2022/11/04 10:50:59;;;;;;;4.05;0.90;;;;;;;-145.69;95.69;52444.38;5100656;28;20560;-83
2022/11/04 10:53:27;;;;;;;4.90;1.17;;;;;;;-145.69;100.00;52442.41;5094745;28;20198;-83
2022/11/04 10:56:01;;;;;;;3.50;0.97;;;;;;;-145.69;100.00;52476.06;5093455;28;20565;-83
2022/11/04 10:58:30;;;;;;;4.00;1.13;;;;;;;-145.69;100.00;52444.38;5102927;28;20644;-83
2022/11/04 11:00:57;;;;;;;6.07;1.08;;;;;;;-145.69;100.00;52430.53;5113881;27;20224;-83
2022/11/04 11:03:30;;;;;;;7.85;1.10;;;;;;;-145.69;100.00;52434.47;5114384;28;20279;-83
2022/11/04 11:06:13;;;;;;;7.47;1.10;;;;;;;-145.69;100.00;52428.53;5114047;28;20274;-82
2022/11/04 11:08:44;;;;;;;3.15;0.75;;;;;;;-145.69;100.00;52430.53;5114106;28;20202;-83
2022/11/04 11:11:11;;;;;;;7.30;1.75;;;;;;;-145.69;100.00;52448.34;5097545;28;20284;-83
2022/11/04 11:13:41;;;;;;;5.60;1.03;;;;;;;-145.69;100.00;52440.44;5093799;28;20559;-82
2022/11/04 11:16:14;;;;;;;5.47;1.35;;;;;;;-145.69;100.00;52462.22;5093879;28;20200;-83
2022/11/04 11:18:41;;;;;;;7.23;1.13;;;;;;;-145.69;100.00;52456.28;5094066;28;20248;-83
2022/11/04 11:21:11;;;;;;;6.35;1.10;;;;;;;-145.69;99.31;52454.28;5094162;28;20572;-83
2022/11/04 11:23:44;;;;;;;6.03;1.13;;;;;;;-145.69;100.00;52452.31;5110645;28;20198;-82
2022/11/04 11:26:15;;;;;;;3.40;0.80;;;;;;;-145.69;100.00;52444.38;5113872;28;20225;-83
2022/11/04 11:28:49;;;;;;;4.05;1.05;;;;;;;-145.69;100.00;52460.22;5113333;28;20200;-83
2022/11/04 11:31:22;;;;;;;5.90;1.30;;;;;;;-145.69;98.50;52468.16;5113280;28;20197;-83
2022/11/04 11:33:52;;;;;;;5.78;0.88;;;;;;;-145.69;100.00;52422.59;5128966;27;20224;-83
2022/11/04 11:36:22;;;;;;;3.47;1.00;;;;;;;-145.69;98.77;52464.19;5153965;27;20539;-83
2022/11/04 11:39:00;;;;;;;6.90;1.13;;;;;;;-145.69;100.00;52438.44;5155280;27;20272;-83
2022/11/04 11:41:33;;;;;;;6.55;0.90;;;;;;;-145.69;100.00;52454.28;5154366;27;20200;-83
2022/11/04 11:44:07;;;;;;;5.30;1.13;;;;;;;-145.69;100.00;52464.19;5154187;27;20207;-83
2022/11/04 11:46:37;;;;;;;4.75;0.77;;;;;;;-145.69;92.74;52454.28;5150702;27;20223;-83
2022/11/04 11:49:05;;;;;;;7.40;1.15;;;;;;;-145.69;98.88;52460.22;5135889;27;20204;-82
2022/11/04 11:51:34;;;;;;;3.60;0.90;;;;;;;-145.69;95.45;52416.66;5134028;27;20189;-83